Naicam, Canada
Current Conditions -  °F | °C
As of 2:12 AM on Monday 20 Oct 2014 (Local Time) from CYBU Reporting Station
Haze Haze  
Wind Chill: 34°   Ceiling: Unl
Heat Index: 34°   Visibility: 2.2mi
Dew Point: 34°   Wind: 3mph
Humidity: 100%   Direction: 70°ENE
Pressure: 29.9"   Gusts: NA
Location:  52.42°N, 104.5°W
Report Text: CYBU 200812Z AUTO 07003KT 2 1/4SM BR CLR 01/01 A2990 RMK SLP137
Loading
Personal Weather Stations






























Interactive Weather Map
Tropical Storm Tracking
New forecast layout! Learn more

10-Day Weather Forecast

Advertisements
Track Severe Weather on mobile